Airfield :







YOU CAN JOIN US ON...

 
LOGIN :

Register | Disclaimer

   EN    FR    IT 

 









Legend :    VFR   Marginal VFR   IFR   Intensive IFR   Very Intensive IFR
Visi :
Ceiling :
>= 8 km
>= 3000ft
5 to 8 km
1000 to 3000 ft
1500m to 5 km
500 to 1000 ft
800 to 1500m
200 to 500 ft
< 800m
< 200 ft
Symbols :   Thunderstorms  Fog  Heavy snow  Heavy precipitations  Wind > 20 kt







- Airport Elevation : 477 ft
- IATA code : YHZ


CYHZ - Halifax Stanfield Int.

CURRENT METAR :
  • 250100Z 07005KT 15SM BKN084 15/08 A2987 RMK AC7 SLP117 DENSITY ALT 700FT

EXPIRED METARs :
  • 250000Z 08004KT 15SM BKN089 BKN300 16/08 A2983 RMK AC5CI2 SLP104 DENSITY ALT 900FT
  • 242300Z 04002KT 15SM FEW080 BKN300 18/09 A2982 RMK AC2CI3 SLP100 DENSITY ALT 1000FT

TAF TAF CYHZ
Valid from the 25 at 00:00 until the 26 at 00:00 UTC


242338Z 2500/2524 VRB03KT P6SM FEW080
FM250700 VRB03KT P6SM SKC
FM251600 19012KT P6SM SCT050 RMK NXT FCST BY 250300Z
CZQM FIR / North America



MET'MAP, your aeronautical weather chart ! - Copyright ORBIFLY December 2007 - Disclaimer

ORBIFLY MET'MAP TEAM :

Programming & Development : Alexandra Zaïnal
Concept & Development : Baudouin d'Aumeries
Co-Development & Prog : Marc-Olivier Méhu
Technical & hardware support : Manuel Goepfert

Contact : metmap@orbifly.com




SOURCES & CREDITS :

   NOAA